createdAt,value
2024-02-29T00:00:54.784Z,6.11
2024-02-29T00:01:54.805Z,6.08
2024-02-29T00:02:54.756Z,6.07
2024-02-29T00:03:57.679Z,6.06
2024-02-29T00:05:00.475Z,6.06
2024-02-29T00:06:54.765Z,6.06
2024-02-29T00:07:54.810Z,6.1
2024-02-29T00:08:54.913Z,6.12
2024-02-29T00:09:54.777Z,6.14
2024-02-29T00:10:54.748Z,6.12
2024-02-29T00:11:54.966Z,6.11
2024-02-29T00:12:55.074Z,6.14
2024-02-29T00:13:55.068Z,6.15
2024-02-29T00:14:54.761Z,6.15
2024-02-29T00:15:54.782Z,6.13
2024-02-29T00:16:54.918Z,6.13
2024-02-29T00:17:54.785Z,6.1
2024-02-29T00:18:54.757Z,6.09
2024-02-29T00:19:54.760Z,6.07
2024-02-29T00:20:54.759Z,6.03
2024-02-29T00:21:54.823Z,6.03
2024-02-29T00:22:54.745Z,6.03
2024-02-29T00:23:54.757Z,6.06
2024-02-29T00:24:57.770Z,6.08
2024-02-29T00:26:00.659Z,6.09
2024-02-29T00:27:54.781Z,6.08
2024-02-29T00:28:54.749Z,6.07
2024-02-29T00:29:54.748Z,6.05
2024-02-29T00:30:54.762Z,6.03
2024-02-29T00:31:54.758Z,6.01
2024-02-29T00:32:58.138Z,6
2024-02-29T00:33:54.796Z,5.97
2024-02-29T00:34:54.764Z,5.93
2024-02-29T00:36:54.802Z,5.87
2024-02-29T00:37:54.740Z,5.88
2024-02-29T00:39:02.186Z,5.84
2024-02-29T00:39:54.772Z,5.84
2024-02-29T00:40:54.885Z,5.81
2024-02-29T00:41:54.840Z,5.79
2024-02-29T00:42:54.784Z,5.75
2024-02-29T00:43:54.825Z,5.74
2024-02-29T00:44:54.945Z,5.72
2024-02-29T00:45:54.956Z,5.72
2024-02-29T00:46:54.897Z,5.73
2024-02-29T00:47:57.970Z,5.73
2024-02-29T00:49:01.280Z,5.73
2024-02-29T00:50:55.111Z,5.71
2024-02-29T00:51:54.920Z,5.7
2024-02-29T00:52:54.767Z,5.68
2024-02-29T00:53:55.195Z,5.68
2024-02-29T00:54:54.776Z,5.65
2024-02-29T00:55:54.762Z,5.64
2024-02-29T00:56:54.763Z,5.63
2024-02-29T00:57:54.776Z,5.63
2024-02-29T00:58:54.764Z,5.61
2024-02-29T00:59:54.737Z,5.59
2024-02-29T01:00:54.800Z,5.6
2024-02-29T01:01:54.802Z,5.63
2024-02-29T01:02:54.756Z,5.67
2024-02-29T01:03:54.772Z,5.67
2024-02-29T01:04:54.746Z,5.65
2024-02-29T01:05:54.762Z,5.63
2024-02-29T01:06:54.781Z,5.61
2024-02-29T01:07:55.191Z,5.6
2024-02-29T01:08:58.245Z,5.64
2024-02-29T01:10:01.313Z,5.66
2024-02-29T01:11:54.956Z,5.67
2024-02-29T01:12:54.797Z,5.64
2024-02-29T01:13:54.744Z,5.63
2024-02-29T01:14:54.785Z,5.64
2024-02-29T01:15:54.754Z,5.64
2024-02-29T01:16:54.764Z,5.62
2024-02-29T01:17:54.774Z,5.59
2024-02-29T01:18:54.827Z,5.57
2024-02-29T01:19:54.736Z,5.55
2024-02-29T01:20:54.762Z,5.52
2024-02-29T01:21:54.787Z,5.5
2024-02-29T01:22:54.767Z,5.47
2024-02-29T01:23:54.765Z,5.43
2024-02-29T01:24:54.779Z,5.38
2024-02-29T01:25:54.772Z,5.34
2024-02-29T01:26:54.772Z,5.31
2024-02-29T01:27:54.768Z,5.27
2024-02-29T01:28:55.262Z,5.23
2024-02-29T01:29:58.342Z,5.19
2024-02-29T01:31:01.397Z,5.16
2024-02-29T01:32:54.788Z,5.16
2024-02-29T01:33:54.791Z,5.17
2024-02-29T01:34:54.753Z,5.2
2024-02-29T01:35:54.763Z,5.24
2024-02-29T01:36:54.790Z,5.25
2024-02-29T01:37:54.776Z,5.25
2024-02-29T01:38:54.755Z,5.27
2024-02-29T01:39:54.870Z,5.28
2024-02-29T01:40:54.781Z,5.27
2024-02-29T01:41:54.776Z,5.32
2024-02-29T01:42:54.825Z,5.33
2024-02-29T01:43:54.798Z,5.41
2024-02-29T01:44:54.782Z,5.41
2024-02-29T01:45:54.794Z,5.4
2024-02-29T01:46:54.801Z,5.39
2024-02-29T01:47:54.806Z,5.38
2024-02-29T01:48:54.814Z,5.38
2024-02-29T01:49:55.361Z,5.38
2024-02-29T01:50:58.383Z,5.39
2024-02-29T01:52:01.509Z,5.39
2024-02-29T01:53:54.753Z,5.39
2024-02-29T01:54:54.788Z,5.38
2024-02-29T01:55:54.754Z,5.37
2024-02-29T01:56:54.762Z,5.37
2024-02-29T01:57:54.775Z,5.36
2024-02-29T01:58:54.748Z,5.37
2024-02-29T01:59:54.758Z,5.4
2024-02-29T02:00:55.040Z,5.41
2024-02-29T02:01:54.769Z,5.41
2024-02-29T02:02:54.767Z,5.48
2024-02-29T02:03:54.867Z,5.5
2024-02-29T02:04:54.768Z,5.56
2024-02-29T02:05:54.767Z,5.59
2024-02-29T02:06:54.837Z,5.6
2024-02-29T02:07:54.769Z,5.59
2024-02-29T02:08:54.762Z,5.58
2024-02-29T02:09:54.790Z,5.6
2024-02-29T02:10:55.481Z,5.59
2024-02-29T02:11:58.528Z,5.59
2024-02-29T02:13:01.579Z,5.59
2024-02-29T02:14:54.764Z,5.61
2024-02-29T02:15:54.931Z,5.62
2024-02-29T02:16:54.749Z,5.62
2024-02-29T02:17:55.001Z,5.63
2024-02-29T02:18:54.766Z,5.66
2024-02-29T02:19:54.776Z,5.69
2024-02-29T02:20:54.756Z,5.72
2024-02-29T02:21:55.009Z,5.71
2024-02-29T02:22:54.763Z,5.72
2024-02-29T02:23:54.761Z,5.71
2024-02-29T02:24:54.963Z,5.69
2024-02-29T02:25:54.793Z,5.66
2024-02-29T02:26:54.846Z,5.64
2024-02-29T02:27:54.784Z,5.64
2024-02-29T02:28:54.756Z,5.63
2024-02-29T02:29:54.755Z,5.59
2024-02-29T02:30:54.773Z,5.59
2024-02-29T02:31:55.602Z,5.56
2024-02-29T02:32:58.694Z,5.57
2024-02-29T02:34:01.637Z,5.58
2024-02-29T02:35:54.780Z,5.56
2024-02-29T02:36:54.792Z,5.56
2024-02-29T02:37:54.749Z,5.56
2024-02-29T02:38:54.757Z,5.54
2024-02-29T02:39:54.821Z,5.55
2024-02-29T02:40:54.761Z,5.52
2024-02-29T02:41:54.776Z,5.51
2024-02-29T02:42:55.163Z,5.52
2024-02-29T02:43:54.755Z,5.53
2024-02-29T02:44:54.768Z,5.51
2024-02-29T02:45:54.894Z,5.49
2024-02-29T02:46:54.963Z,5.47
2024-02-29T02:47:54.796Z,5.45
2024-02-29T02:48:54.761Z,5.44
2024-02-29T02:49:54.754Z,5.42
2024-02-29T02:50:54.817Z,5.41
2024-02-29T02:51:54.793Z,5.4
2024-02-29T02:52:55.645Z,5.39
2024-02-29T02:53:58.760Z,5.38
2024-02-29T02:55:01.861Z,5.37
2024-02-29T02:56:54.768Z,5.34
2024-02-29T02:57:54.789Z,5.32
2024-02-29T02:58:54.753Z,5.3
2024-02-29T02:59:54.752Z,5.28
2024-02-29T03:00:54.776Z,5.3
2024-02-29T03:01:54.809Z,5.31
2024-02-29T03:02:54.748Z,5.31
2024-02-29T03:03:55.135Z,5.32
2024-02-29T03:04:54.820Z,5.31
2024-02-29T03:05:54.766Z,5.28
2024-02-29T03:06:54.910Z,5.27
2024-02-29T03:07:54.761Z,5.24
2024-02-29T03:08:54.764Z,5.21
2024-02-29T03:09:54.779Z,5.2
2024-02-29T03:10:54.766Z,5.21
2024-02-29T03:11:54.784Z,5.23
2024-02-29T03:12:54.803Z,5.22
2024-02-29T03:13:55.626Z,5.19
2024-02-29T03:14:58.741Z,5.17
2024-02-29T03:16:01.867Z,5.17
2024-02-29T03:17:54.770Z,5.13
2024-02-29T03:18:54.820Z,5.12
2024-02-29T03:19:54.746Z,5.09
2024-02-29T03:20:54.752Z,5.07
2024-02-29T03:21:54.901Z,5.04
2024-02-29T03:22:54.757Z,5.02
2024-02-29T03:23:54.774Z,4.98
2024-02-29T03:24:54.768Z,4.94
2024-02-29T03:25:54.759Z,4.92
2024-02-29T03:26:54.777Z,4.87
2024-02-29T03:27:54.798Z,4.86
2024-02-29T03:28:54.758Z,4.82
2024-02-29T03:29:55.131Z,4.76
2024-02-29T03:30:54.772Z,4.75
2024-02-29T03:31:54.793Z,4.7
2024-02-29T03:32:54.914Z,4.67
2024-02-29T03:33:54.818Z,4.64
2024-02-29T03:34:54.771Z,4.6
2024-02-29T03:35:54.774Z,4.57
2024-02-29T03:36:57.070Z,4.56
2024-02-29T03:37:59.842Z,4.54
2024-02-29T03:39:01.789Z,4.5
2024-02-29T03:39:54.809Z,4.46
2024-02-29T03:40:54.760Z,4.42
2024-02-29T03:41:54.782Z,4.39
2024-02-29T03:42:54.822Z,4.35
2024-02-29T03:43:54.762Z,4.37
2024-02-29T03:44:58.061Z,4.38
2024-02-29T03:45:54.782Z,4.38
2024-02-29T03:46:54.772Z,4.37
2024-02-29T03:47:54.810Z,4.39
2024-02-29T03:48:54.820Z,4.39
2024-02-29T03:49:54.770Z,4.41
2024-02-29T03:50:54.764Z,4.42
2024-02-29T03:51:54.771Z,4.45
2024-02-29T03:52:54.749Z,4.46
2024-02-29T03:53:54.866Z,4.48
2024-02-29T03:54:54.803Z,4.48
2024-02-29T03:55:54.764Z,4.45
2024-02-29T03:56:54.772Z,4.41
2024-02-29T03:57:57.153Z,4.41
2024-02-29T03:58:59.915Z,4.39
2024-02-29T04:00:02.244Z,4.39
2024-02-29T04:00:54.832Z,4.4
2024-02-29T04:01:55.073Z,4.42
2024-02-29T04:02:55.058Z,4.44
2024-02-29T04:03:54.802Z,4.44
2024-02-29T04:04:54.936Z,4.46
2024-02-29T04:05:54.768Z,4.49
2024-02-29T04:06:54.806Z,4.51
2024-02-29T04:07:54.855Z,4.52
2024-02-29T04:08:54.755Z,4.52
2024-02-29T04:09:54.776Z,4.56
2024-02-29T04:10:54.762Z,4.57
2024-02-29T04:11:55.313Z,4.6
2024-02-29T04:12:54.783Z,4.64
2024-02-29T04:13:54.756Z,4.66
2024-02-29T04:14:55.215Z,4.69
2024-02-29T04:15:54.792Z,4.71
2024-02-29T04:16:54.783Z,4.71
2024-02-29T04:17:54.776Z,4.73
2024-02-29T04:18:57.157Z,4.76
2024-02-29T04:20:00.463Z,4.76
2024-02-29T04:21:54.797Z,4.8
2024-02-29T04:22:54.772Z,4.8
2024-02-29T04:23:54.762Z,4.78
2024-02-29T04:24:54.785Z,4.79
2024-02-29T04:25:54.928Z,4.8
2024-02-29T04:26:54.787Z,4.83
2024-02-29T04:27:54.788Z,4.81
2024-02-29T04:28:54.766Z,4.82
2024-02-29T04:29:54.777Z,4.84
2024-02-29T04:30:54.761Z,4.83
2024-02-29T04:31:54.773Z,4.82
2024-02-29T04:32:54.825Z,4.8
2024-02-29T04:33:54.759Z,4.84
2024-02-29T04:34:54.763Z,4.9
2024-02-29T04:35:54.759Z,4.97
2024-02-29T04:36:54.814Z,4.99
2024-02-29T04:37:54.776Z,5.01
2024-02-29T04:38:54.764Z,5.06
2024-02-29T04:39:57.279Z,5.09
2024-02-29T04:41:00.100Z,5.1
2024-02-29T04:42:54.776Z,5.15
2024-02-29T04:43:54.753Z,5.15
2024-02-29T04:44:54.750Z,5.13
2024-02-29T04:45:54.788Z,5.1
2024-02-29T04:46:54.994Z,5.11
2024-02-29T04:47:54.806Z,5.1
2024-02-29T04:48:54.792Z,5.13
2024-02-29T04:49:54.781Z,5.1
2024-02-29T04:50:54.763Z,5.1
2024-02-29T04:51:54.822Z,5.11
2024-02-29T04:52:54.760Z,5.12
2024-02-29T04:53:54.754Z,5.11
2024-02-29T04:54:54.764Z,5.14
2024-02-29T04:55:54.755Z,5.13
2024-02-29T04:56:54.766Z,5.12
2024-02-29T04:57:54.783Z,5.11
2024-02-29T04:58:54.757Z,5.12
2024-02-29T04:59:55.751Z,5.1
2024-02-29T05:00:55.724Z,5.1
2024-02-29T05:01:58.799Z,5.08
2024-02-29T05:03:54.788Z,5.05
2024-02-29T05:04:54.782Z,5.03
2024-02-29T05:05:54.748Z,5.03
2024-02-29T05:06:54.799Z,5.06
2024-02-29T05:07:54.754Z,5.04
2024-02-29T05:08:54.760Z,5.03
2024-02-29T05:09:54.765Z,5.02
2024-02-29T05:10:54.897Z,5.04
2024-02-29T05:11:54.764Z,5.04
2024-02-29T05:12:54.816Z,5.03
2024-02-29T05:13:54.743Z,5.03
2024-02-29T05:14:54.766Z,5.03
2024-02-29T05:15:54.803Z,5.05
2024-02-29T05:16:54.776Z,5.06
2024-02-29T05:17:54.782Z,5.08
2024-02-29T05:18:54.770Z,5.06
2024-02-29T05:19:54.765Z,5.03
2024-02-29T05:20:54.754Z,5.02
2024-02-29T05:21:57.703Z,4.98
2024-02-29T05:23:00.274Z,4.98
2024-02-29T05:24:54.814Z,4.97
2024-02-29T05:25:54.778Z,4.97
2024-02-29T05:26:54.758Z,4.95
2024-02-29T05:27:54.809Z,4.94
2024-02-29T05:28:55.067Z,4.91
2024-02-29T05:29:54.765Z,4.9
2024-02-29T05:30:54.797Z,4.88
2024-02-29T05:31:54.967Z,4.86
2024-02-29T05:32:54.797Z,4.84
2024-02-29T05:33:54.800Z,4.81
2024-02-29T05:34:54.774Z,4.83
2024-02-29T05:35:54.759Z,4.85
2024-02-29T05:36:54.812Z,4.89
2024-02-29T05:37:59.492Z,4.91
2024-02-29T05:38:54.769Z,4.92
2024-02-29T05:39:54.797Z,4.91
2024-02-29T05:40:54.808Z,4.9
2024-02-29T05:41:54.769Z,4.92
2024-02-29T05:42:57.517Z,4.92
2024-02-29T05:44:00.420Z,4.89
2024-02-29T05:45:54.763Z,4.84
2024-02-29T05:46:54.771Z,4.84
2024-02-29T05:47:54.788Z,4.84
2024-02-29T05:48:54.789Z,4.84
2024-02-29T05:49:54.756Z,4.85
2024-02-29T05:50:54.772Z,4.88
2024-02-29T05:51:54.784Z,4.93
2024-02-29T05:52:54.899Z,4.96
2024-02-29T05:53:54.755Z,4.96
2024-02-29T05:54:54.787Z,4.97
2024-02-29T05:55:54.763Z,4.97
2024-02-29T05:56:54.773Z,5.01
2024-02-29T05:57:54.791Z,4.99
2024-02-29T05:58:54.749Z,4.98
2024-02-29T05:59:54.768Z,4.99
2024-02-29T06:00:54.798Z,4.97
2024-02-29T06:01:54.849Z,4.98
2024-02-29T06:02:54.764Z,5.01
2024-02-29T06:03:57.658Z,5
2024-02-29T06:05:00.645Z,4.98
2024-02-29T06:06:54.824Z,5.01
2024-02-29T06:07:54.772Z,5.01
2024-02-29T06:08:54.783Z,5.05
2024-02-29T06:09:54.791Z,5.05
2024-02-29T06:10:54.783Z,5.04
2024-02-29T06:11:54.771Z,5.01
2024-02-29T06:12:54.788Z,5.01
2024-02-29T06:13:54.744Z,5
2024-02-29T06:14:54.754Z,4.97
2024-02-29T06:15:54.778Z,4.95
2024-02-29T06:16:54.787Z,4.92
2024-02-29T06:17:54.792Z,4.92
2024-02-29T06:18:54.767Z,4.92
2024-02-29T06:19:54.764Z,4.9
2024-02-29T06:20:54.767Z,4.88
2024-02-29T06:21:54.847Z,4.86
2024-02-29T06:22:54.771Z,4.89
2024-02-29T06:23:54.761Z,4.9
2024-02-29T06:24:57.806Z,4.93
2024-02-29T06:26:00.742Z,4.95
2024-02-29T06:27:54.786Z,4.98
2024-02-29T06:28:54.785Z,5
2024-02-29T06:29:54.750Z,5
2024-02-29T06:30:54.777Z,5.03
2024-02-29T06:31:54.803Z,5.03
2024-02-29T06:32:54.804Z,5.09
2024-02-29T06:33:54.836Z,5.11
2024-02-29T06:34:54.768Z,5.13
2024-02-29T06:35:54.756Z,5.15
2024-02-29T06:36:54.803Z,5.16
2024-02-29T06:37:54.769Z,5.18
2024-02-29T06:38:54.762Z,5.19
2024-02-29T06:39:54.772Z,5.2
2024-02-29T06:40:54.762Z,5.23
2024-02-29T06:41:54.827Z,5.25
2024-02-29T06:42:54.771Z,5.32
2024-02-29T06:43:54.757Z,5.4
2024-02-29T06:44:54.770Z,5.52
2024-02-29T06:45:57.909Z,5.61
2024-02-29T06:47:00.705Z,5.65
2024-02-29T06:48:54.885Z,5.78
2024-02-29T06:49:54.760Z,5.85
2024-02-29T06:50:54.761Z,5.9
2024-02-29T06:51:54.809Z,5.87
2024-02-29T06:52:55.785Z,5.91
2024-02-29T06:53:54.760Z,6
2024-02-29T06:54:54.788Z,5.99
2024-02-29T06:55:54.753Z,5.93
2024-02-29T06:56:54.797Z,5.97
2024-02-29T06:57:54.780Z,6
2024-02-29T06:58:54.778Z,6.09
2024-02-29T06:59:54.778Z,6.17
2024-02-29T07:00:54.821Z,6.27
2024-02-29T07:01:54.870Z,6.33
2024-02-29T07:02:54.758Z,6.45
2024-02-29T07:03:54.806Z,6.54
2024-02-29T07:04:54.813Z,6.61
2024-02-29T07:05:54.766Z,6.71
2024-02-29T07:06:56.637Z,6.88
2024-02-29T07:07:59.140Z,6.96
2024-02-29T07:09:54.784Z,7.22
2024-02-29T07:10:55.177Z,7.29
2024-02-29T07:11:54.781Z,7.42
2024-02-29T07:12:54.823Z,7.43
2024-02-29T07:13:54.765Z,7.53
2024-02-29T07:14:54.773Z,7.54
2024-02-29T07:15:54.780Z,7.61
2024-02-29T07:16:54.808Z,7.74
2024-02-29T07:17:54.864Z,7.7
2024-02-29T07:18:54.817Z,7.77
2024-02-29T07:19:54.788Z,7.62
2024-02-29T07:20:54.759Z,7.49
2024-02-29T07:21:54.798Z,7.55
2024-02-29T07:22:54.764Z,7.63
2024-02-29T07:23:54.958Z,7.69
2024-02-29T07:24:54.811Z,7.75
2024-02-29T07:25:54.763Z,7.73
2024-02-29T07:26:54.987Z,7.74
2024-02-29T07:27:58.089Z,7.7
2024-02-29T07:29:01.036Z,7.71
2024-02-29T07:30:54.963Z,7.81
2024-02-29T07:31:55.782Z,7.83
2024-02-29T07:32:54.788Z,7.89
2024-02-29T07:33:54.881Z,8.06
2024-02-29T07:34:54.758Z,8.17
2024-02-29T07:35:54.766Z,8.25
2024-02-29T07:36:54.828Z,8.41
2024-02-29T07:37:55.036Z,8.44
2024-02-29T07:38:54.772Z,8.44
2024-02-29T07:39:54.772Z,8.48
2024-02-29T07:40:54.774Z,8.58
2024-02-29T07:41:54.781Z,8.57
2024-02-29T07:42:54.801Z,8.67
2024-02-29T07:43:54.767Z,8.8
2024-02-29T07:44:55.036Z,8.77
2024-02-29T07:45:54.795Z,8.95
2024-02-29T07:46:54.798Z,9.17
2024-02-29T07:47:55.070Z,9.29
2024-02-29T07:48:58.149Z,9.33
2024-02-29T07:50:01.017Z,9.35
2024-02-29T07:51:54.809Z,9
2024-02-29T07:52:54.768Z,9.02
2024-02-29T07:53:54.759Z,9.06
2024-02-29T07:54:54.845Z,9.21
2024-02-29T07:55:54.751Z,9.22
2024-02-29T07:56:54.809Z,9.27
2024-02-29T07:57:54.771Z,9.37
2024-02-29T07:58:54.764Z,9.33
2024-02-29T07:59:54.765Z,9.5
2024-02-29T08:00:54.804Z,9.66
2024-02-29T08:01:54.891Z,9.71
2024-02-29T08:02:54.755Z,9.74
2024-02-29T08:03:54.797Z,9.82
2024-02-29T08:04:54.766Z,9.96
2024-02-29T08:05:55.116Z,10.03
2024-02-29T08:06:54.842Z,9.94
2024-02-29T08:07:54.770Z,9.93
2024-02-29T08:08:54.774Z,9.95
2024-02-29T08:09:54.777Z,10.07
2024-02-29T08:10:55.626Z,10.23
2024-02-29T08:11:58.775Z,10.25
2024-02-29T08:13:01.805Z,10.25
2024-02-29T08:14:54.757Z,10.3
2024-02-29T08:15:54.783Z,10.3
2024-02-29T08:16:54.796Z,10.31
2024-02-29T08:17:54.796Z,10.24
2024-02-29T08:18:54.788Z,10.28
2024-02-29T08:19:54.760Z,10.25
2024-02-29T08:20:54.760Z,10.19
2024-02-29T08:21:55.042Z,10.29
2024-02-29T08:22:54.768Z,10.35
2024-02-29T08:23:54.757Z,10.38
2024-02-29T08:24:54.946Z,10.27
2024-02-29T08:25:54.748Z,10.25
2024-02-29T08:26:54.797Z,10.32
2024-02-29T08:27:54.795Z,10.43
2024-02-29T08:28:54.775Z,10.44
2024-02-29T08:29:54.771Z,10.57
2024-02-29T08:30:54.783Z,10.55
2024-02-29T08:31:55.677Z,10.64
2024-02-29T08:32:58.837Z,10.74
2024-02-29T08:34:01.886Z,10.82
2024-02-29T08:35:54.774Z,10.58
2024-02-29T08:36:54.848Z,10.6
2024-02-29T08:37:55.619Z,10.67
2024-02-29T08:38:54.754Z,10.68
2024-02-29T08:39:54.775Z,10.62
2024-02-29T08:40:54.784Z,10.62
2024-02-29T08:41:54.770Z,10.64
2024-02-29T08:42:54.788Z,10.74
2024-02-29T08:43:54.763Z,10.68
2024-02-29T08:44:54.769Z,10.79
2024-02-29T08:45:54.830Z,10.6
2024-02-29T08:46:54.789Z,10.72
2024-02-29T08:47:54.833Z,10.6
2024-02-29T08:48:54.763Z,10.59
2024-02-29T08:49:54.772Z,10.59
2024-02-29T08:50:54.768Z,10.69
2024-02-29T08:51:54.825Z,10.87
2024-02-29T08:52:55.768Z,10.93
2024-02-29T08:53:58.877Z,10.99
2024-02-29T08:55:01.981Z,11.06
2024-02-29T08:56:54.783Z,11.44
2024-02-29T08:57:54.779Z,11.46
2024-02-29T08:58:54.753Z,11.54
2024-02-29T08:59:54.760Z,11.61
2024-02-29T09:00:54.804Z,11.66
2024-02-29T09:01:54.942Z,11.75
2024-02-29T09:02:54.769Z,11.84
2024-02-29T09:03:55.418Z,11.86
2024-02-29T09:04:54.771Z,11.84
2024-02-29T09:05:54.761Z,11.87
2024-02-29T09:06:54.958Z,11.88
2024-02-29T09:07:54.774Z,11.92
2024-02-29T09:08:54.771Z,11.77
2024-02-29T09:09:54.822Z,11.82
2024-02-29T09:10:54.759Z,11.79
2024-02-29T09:11:54.785Z,11.89
2024-02-29T09:12:54.779Z,11.98
2024-02-29T09:13:55.873Z,12.1
2024-02-29T09:14:58.960Z,12.13
2024-02-29T09:16:02.084Z,12.04
2024-02-29T09:17:54.768Z,11.9
2024-02-29T09:18:54.795Z,11.9
2024-02-29T09:19:54.764Z,11.9
2024-02-29T09:20:54.781Z,11.85
2024-02-29T09:21:54.800Z,12.05
2024-02-29T09:22:54.758Z,12.08
2024-02-29T09:23:54.757Z,12.18
2024-02-29T09:24:54.811Z,12.25
2024-02-29T09:25:54.804Z,12.19
2024-02-29T09:26:54.789Z,12.17
2024-02-29T09:27:54.768Z,12.28
2024-02-29T09:28:54.776Z,12.49
2024-02-29T09:29:56.980Z,12.39
2024-02-29T09:30:54.860Z,12.32
2024-02-29T09:31:54.815Z,12.49
2024-02-29T09:32:54.778Z,12.66
2024-02-29T09:33:54.875Z,12.77
2024-02-29T09:34:55.850Z,13.04
2024-02-29T09:35:59.484Z,13.22
2024-02-29T09:37:02.029Z,13.31
2024-02-29T09:38:54.916Z,13.45
2024-02-29T09:39:54.849Z,13.43
2024-02-29T09:41:02.966Z,13.32
2024-02-29T09:42:07.823Z,13.27
2024-02-29T09:42:54.784Z,13.08
2024-02-29T09:43:54.771Z,12.95
2024-02-29T09:44:54.810Z,12.99
2024-02-29T09:45:54.771Z,13
2024-02-29T09:46:54.760Z,13.03
2024-02-29T09:47:54.791Z,12.98
2024-02-29T09:48:54.785Z,12.95
2024-02-29T09:49:59.231Z,12.97
2024-02-29T09:50:54.761Z,13.23
2024-02-29T09:51:54.795Z,13.37
2024-02-29T09:52:54.759Z,13.55
2024-02-29T09:53:54.759Z,13.77
2024-02-29T09:54:54.804Z,13.82
2024-02-29T09:55:55.974Z,13.87
2024-02-29T09:56:59.130Z,13.98
2024-02-29T09:58:02.470Z,13.91
2024-02-29T09:59:54.948Z,13.71
2024-02-29T10:00:54.812Z,13.42
2024-02-29T10:01:54.883Z,13.27
2024-02-29T10:02:57.864Z,13.18
2024-02-29T10:03:54.793Z,13
2024-02-29T10:04:54.764Z,13.02
2024-02-29T10:05:54.768Z,13.08
2024-02-29T10:06:54.820Z,13.25
2024-02-29T10:07:54.790Z,13.36
2024-02-29T10:08:54.755Z,13.39
2024-02-29T10:09:54.780Z,13.46
2024-02-29T10:10:55.785Z,13.6
2024-02-29T10:11:54.772Z,13.38
2024-02-29T10:12:54.855Z,13.46
2024-02-29T10:13:54.760Z,13.64
2024-02-29T10:14:54.769Z,13.89
2024-02-29T10:15:54.791Z,14.08
2024-02-29T10:16:56.327Z,14.23
2024-02-29T10:17:59.436Z,14.29
2024-02-29T10:19:02.736Z,14.11
2024-02-29T10:20:54.971Z,13.71
2024-02-29T10:21:54.804Z,13.56
2024-02-29T10:22:54.799Z,13.51
2024-02-29T10:23:54.806Z,13.51
2024-02-29T10:24:54.783Z,13.28
2024-02-29T10:25:54.772Z,13.21
2024-02-29T10:26:54.758Z,13.34
2024-02-29T10:27:54.840Z,13.62
2024-02-29T10:28:54.756Z,13.75
2024-02-29T10:29:54.777Z,13.93
2024-02-29T10:30:54.790Z,14.12
2024-02-29T10:31:54.754Z,14.23
2024-02-29T10:32:54.824Z,14.35
2024-02-29T10:33:54.786Z,14.33
2024-02-29T10:34:54.764Z,14.49
2024-02-29T10:35:54.785Z,14.57
2024-02-29T10:36:54.805Z,14.72
2024-02-29T10:37:56.121Z,14.34
2024-02-29T10:38:59.215Z,14.37
2024-02-29T10:40:01.256Z,14.17
2024-02-29T10:41:55.058Z,14.03
2024-02-29T10:42:54.829Z,14.01
2024-02-29T10:43:54.751Z,13.88
2024-02-29T10:44:54.950Z,13.85
2024-02-29T10:45:54.804Z,13.88
2024-02-29T10:46:54.822Z,13.93
2024-02-29T10:47:54.844Z,14.09
2024-02-29T10:48:54.787Z,14.18
2024-02-29T10:49:54.762Z,14.11
2024-02-29T10:50:54.789Z,14.09
2024-02-29T10:51:54.808Z,14.08
2024-02-29T10:52:54.790Z,14.15
2024-02-29T10:53:54.755Z,14.32
2024-02-29T10:54:54.804Z,14.2
2024-02-29T10:55:54.757Z,14.22
2024-02-29T10:56:54.859Z,14.18
2024-02-29T10:57:54.786Z,14.22
2024-02-29T10:58:56.175Z,14.07
2024-02-29T10:59:59.329Z,14.11
2024-02-29T11:01:01.178Z,14.31
2024-02-29T11:01:54.828Z,14.6
2024-02-29T11:02:58.408Z,14.91
2024-02-29T11:03:54.789Z,15.11
2024-02-29T11:04:54.767Z,14.86
2024-02-29T11:05:54.840Z,14.85
2024-02-29T11:06:54.780Z,14.99
2024-02-29T11:07:54.766Z,14.82
2024-02-29T11:08:54.766Z,14.84
2024-02-29T11:09:54.889Z,14.99
2024-02-29T11:10:54.792Z,15.21
2024-02-29T11:11:54.757Z,15.25
2024-02-29T11:12:54.776Z,15.24
2024-02-29T11:13:54.769Z,15.3
2024-02-29T11:14:54.759Z,15.31
2024-02-29T11:15:54.869Z,15.37
2024-02-29T11:16:54.768Z,15.19
2024-02-29T11:17:54.876Z,15.21
2024-02-29T11:18:54.757Z,15.24
2024-02-29T11:19:59.392Z,15.18
2024-02-29T11:20:59.442Z,15.23
2024-02-29T11:22:01.182Z,15.33
2024-02-29T11:22:55.576Z,15.41
2024-02-29T11:23:54.784Z,15.42
2024-02-29T11:24:54.802Z,15.59
2024-02-29T11:25:54.780Z,15.49
2024-02-29T11:26:54.753Z,15.54
2024-02-29T11:27:54.788Z,15.75
2024-02-29T11:28:54.774Z,15.6
2024-02-29T11:29:54.764Z,15.59
2024-02-29T11:30:54.801Z,15.22
2024-02-29T11:31:54.823Z,15.01
2024-02-29T11:32:54.805Z,14.98
2024-02-29T11:33:54.842Z,14.99
2024-02-29T11:34:54.754Z,14.71
2024-02-29T11:35:54.760Z,14.45
2024-02-29T11:36:54.789Z,14.28
2024-02-29T11:37:54.769Z,14.08
2024-02-29T11:38:54.779Z,13.82
2024-02-29T11:39:54.772Z,13.85
2024-02-29T11:40:54.755Z,13.76
2024-02-29T11:41:54.769Z,13.66
2024-02-29T11:42:57.571Z,13.62
2024-02-29T11:44:00.499Z,13.59
2024-02-29T11:45:54.759Z,13.94
2024-02-29T11:46:54.765Z,13.95
2024-02-29T11:47:54.812Z,14.08
2024-02-29T11:48:57.943Z,14.08
2024-02-29T11:49:54.763Z,14.22
2024-02-29T11:50:54.761Z,14.42
2024-02-29T11:51:54.785Z,14.52
2024-02-29T11:52:54.794Z,14.66
2024-02-29T11:53:54.758Z,14.66
2024-02-29T11:54:54.829Z,14.71
2024-02-29T11:56:02.464Z,14.83
2024-02-29T11:56:54.773Z,14.96
2024-02-29T11:57:54.777Z,14.88
2024-02-29T11:58:54.749Z,14.86
2024-02-29T11:59:57.767Z,14.69
2024-02-29T12:00:54.807Z,14.46
2024-02-29T12:01:54.799Z,14.36
2024-02-29T12:02:54.753Z,14.33
2024-02-29T12:03:57.165Z,14.33
2024-02-29T12:05:00.076Z,14.24
2024-02-29T12:06:54.769Z,14.21
2024-02-29T12:07:54.759Z,14.22
2024-02-29T12:08:54.766Z,14.25
2024-02-29T12:09:55.052Z,14.3
2024-02-29T12:10:54.793Z,14.38
2024-02-29T12:11:54.756Z,14.14
2024-02-29T12:12:54.805Z,14.14
2024-02-29T12:13:54.910Z,14.04
2024-02-29T12:14:54.777Z,13.9
2024-02-29T12:15:57.789Z,13.6
2024-02-29T12:16:54.758Z,13.57
2024-02-29T12:17:54.802Z,13.44
2024-02-29T12:18:54.825Z,13.42
2024-02-29T12:19:54.764Z,13.46
2024-02-29T12:20:54.757Z,13.44
2024-02-29T12:21:57.771Z,13.49
2024-02-29T12:22:54.758Z,13.52
2024-02-29T12:23:54.784Z,13.58
2024-02-29T12:24:57.909Z,13.53
2024-02-29T12:26:00.711Z,13.51
2024-02-29T12:27:54.839Z,13.44
2024-02-29T12:28:54.800Z,13.63
2024-02-29T12:29:54.783Z,13.92
2024-02-29T12:30:54.803Z,14.22
2024-02-29T12:31:54.773Z,14.68
2024-02-29T12:32:54.790Z,15.24
2024-02-29T12:33:54.865Z,15.73
2024-02-29T12:34:54.769Z,15.92
2024-02-29T12:35:54.847Z,16.2
2024-02-29T12:36:54.960Z,16.35
2024-02-29T12:37:54.882Z,16.62
2024-02-29T12:38:54.781Z,16.84
2024-02-29T12:39:54.849Z,16.62
2024-02-29T12:40:54.755Z,16.59
2024-02-29T12:41:54.779Z,16.55
2024-02-29T12:42:54.796Z,16.66
2024-02-29T12:43:54.773Z,16.86
2024-02-29T12:44:54.756Z,16.84
2024-02-29T12:45:57.966Z,16.72
2024-02-29T12:47:00.793Z,16.73
2024-02-29T12:48:54.784Z,16.32
2024-02-29T12:49:54.768Z,16.26
2024-02-29T12:50:54.767Z,16.2
2024-02-29T12:51:57.795Z,16.28
2024-02-29T12:52:54.791Z,16.23
2024-02-29T12:53:54.821Z,16.29
2024-02-29T12:54:54.771Z,16.22
2024-02-29T12:55:54.762Z,15.99
2024-02-29T12:56:54.756Z,15.49
2024-02-29T12:57:54.784Z,15.24
2024-02-29T12:58:54.788Z,15.01
2024-02-29T12:59:54.765Z,14.91
2024-02-29T13:00:54.808Z,14.77
2024-02-29T13:01:54.981Z,14.8
2024-02-29T13:02:54.854Z,14.81
2024-02-29T13:03:54.913Z,14.7
2024-02-29T13:04:54.761Z,14.6
2024-02-29T13:05:54.862Z,14.38
2024-02-29T13:06:57.908Z,14.36
2024-02-29T13:08:00.590Z,14.26
2024-02-29T13:09:54.861Z,14.06
2024-02-29T13:10:54.768Z,13.96
2024-02-29T13:11:54.791Z,13.93
2024-02-29T13:13:03.473Z,13.84
2024-02-29T13:13:54.784Z,13.84
2024-02-29T13:14:54.764Z,13.87
2024-02-29T13:15:57.788Z,13.85
2024-02-29T13:16:54.770Z,13.86
2024-02-29T13:17:54.780Z,13.89
2024-02-29T13:18:54.790Z,13.92
2024-02-29T13:19:54.754Z,13.91
2024-02-29T13:20:54.771Z,13.95
2024-02-29T13:21:54.758Z,14.02
2024-02-29T13:22:54.767Z,14.09
2024-02-29T13:23:54.957Z,14.05
2024-02-29T13:24:54.838Z,14.11
2024-02-29T13:25:54.955Z,14.18
2024-02-29T13:26:57.798Z,14.18
2024-02-29T13:27:58.074Z,14.19
2024-02-29T13:29:00.967Z,14.15
2024-02-29T13:30:54.772Z,13.96
2024-02-29T13:31:54.759Z,13.8
2024-02-29T13:32:54.796Z,13.71
2024-02-29T13:33:54.805Z,13.64
2024-02-29T13:34:54.770Z,13.59
2024-02-29T13:35:54.765Z,13.51
2024-02-29T13:36:54.777Z,13.48
2024-02-29T13:37:54.761Z,13.43
2024-02-29T13:38:54.765Z,13.37
2024-02-29T13:39:54.781Z,13.33
2024-02-29T13:40:54.767Z,13.3
2024-02-29T13:41:54.754Z,13.27
2024-02-29T13:42:54.858Z,13.22
2024-02-29T13:43:54.784Z,13.26
2024-02-29T13:44:54.979Z,13.3
2024-02-29T13:45:54.768Z,13.36
2024-02-29T13:46:54.766Z,13.42